sensor_id;sensor_type;location;lat;lon;timestamp;P1;durP1;ratioP1;P2;durP2;ratioP2
40787;SDS011;26497;52.494;7.546;2023-04-03T00:02:12;3.90;;;2.42;;
40787;SDS011;26497;52.494;7.546;2023-04-03T00:04:39;5.95;;;3.00;;
40787;SDS011;26497;52.494;7.546;2023-04-03T00:07:07;12.60;;;2.88;;
40787;SDS011;26497;52.494;7.546;2023-04-03T00:09:35;16.20;;;3.00;;
40787;SDS011;26497;52.494;7.546;2023-04-03T00:12:02;13.73;;;3.00;;
40787;SDS011;26497;52.494;7.546;2023-04-03T00:14:29;4.82;;;2.65;;
40787;SDS011;26497;52.494;7.546;2023-04-03T00:16:56;13.13;;;2.63;;
40787;SDS011;26497;52.494;7.546;2023-04-03T00:19:23;5.75;;;2.20;;
40787;SDS011;26497;52.494;7.546;2023-04-03T00:21:50;10.68;;;3.00;;
40787;SDS011;26497;52.494;7.546;2023-04-03T00:24:18;12.95;;;2.45;;
40787;SDS011;26497;52.494;7.546;2023-04-03T00:26:46;9.85;;;2.95;;
40787;SDS011;26497;52.494;7.546;2023-04-03T00:29:13;8.07;;;2.88;;
40787;SDS011;26497;52.494;7.546;2023-04-03T00:31:40;4.88;;;2.22;;
40787;SDS011;26497;52.494;7.546;2023-04-03T00:34:07;3.83;;;3.25;;
40787;SDS011;26497;52.494;7.546;2023-04-03T00:36:35;9.88;;;2.60;;
40787;SDS011;26497;52.494;7.546;2023-04-03T00:39:02;3.63;;;2.53;;
40787;SDS011;26497;52.494;7.546;2023-04-03T00:41:29;13.20;;;3.20;;
40787;SDS011;26497;52.494;7.546;2023-04-03T00:43:58;8.75;;;3.33;;
40787;SDS011;26497;52.494;7.546;2023-04-03T00:46:25;6.10;;;2.53;;
40787;SDS011;26497;52.494;7.546;2023-04-03T00:48:53;7.65;;;3.05;;
40787;SDS011;26497;52.494;7.546;2023-04-03T00:51:21;4.70;;;2.75;;
40787;SDS011;26497;52.494;7.546;2023-04-03T00:53:52;5.32;;;2.85;;
40787;SDS011;26497;52.494;7.546;2023-04-03T00:56:25;4.25;;;2.10;;
40787;SDS011;26497;52.494;7.546;2023-04-03T00:58:56;8.00;;;2.70;;
40787;SDS011;26497;52.494;7.546;2023-04-03T01:01:30;6.15;;;3.17;;
40787;SDS011;26497;52.494;7.546;2023-04-03T01:03:58;6.43;;;2.63;;
40787;SDS011;26497;52.494;7.546;2023-04-03T01:06:28;16.58;;;2.90;;
40787;SDS011;26497;52.494;7.546;2023-04-03T01:08:58;5.63;;;2.88;;
40787;SDS011;26497;52.494;7.546;2023-04-03T01:11:26;10.85;;;3.47;;
40787;SDS011;26497;52.494;7.546;2023-04-03T01:13:53;5.57;;;2.67;;
40787;SDS011;26497;52.494;7.546;2023-04-03T01:16:22;8.82;;;2.90;;
40787;SDS011;26497;52.494;7.546;2023-04-03T01:18:49;3.45;;;2.30;;
40787;SDS011;26497;52.494;7.546;2023-04-03T01:24:22;4.22;;;2.42;;
40787;SDS011;26497;52.494;7.546;2023-04-03T01:27:01;9.60;;;3.28;;
40787;SDS011;26497;52.494;7.546;2023-04-03T01:29:31;9.23;;;2.72;;
40787;SDS011;26497;52.494;7.546;2023-04-03T01:32:00;11.93;;;3.47;;
40787;SDS011;26497;52.494;7.546;2023-04-03T01:34:29;8.50;;;3.38;;
40787;SDS011;26497;52.494;7.546;2023-04-03T01:36:56;2.42;;;2.22;;
40787;SDS011;26497;52.494;7.546;2023-04-03T01:39:23;7.38;;;3.28;;
40787;SDS011;26497;52.494;7.546;2023-04-03T01:41:51;15.30;;;4.22;;
40787;SDS011;26497;52.494;7.546;2023-04-03T01:44:18;5.13;;;2.20;;
40787;SDS011;26497;52.494;7.546;2023-04-03T01:46:45;5.53;;;3.65;;
40787;SDS011;26497;52.494;7.546;2023-04-03T01:49:13;8.25;;;2.65;;
40787;SDS011;26497;52.494;7.546;2023-04-03T01:51:40;9.27;;;2.40;;
40787;SDS011;26497;52.494;7.546;2023-04-03T01:54:07;13.05;;;3.63;;
40787;SDS011;26497;52.494;7.546;2023-04-03T01:56:34;10.13;;;3.53;;
40787;SDS011;26497;52.494;7.546;2023-04-03T01:59:02;10.85;;;4.05;;
40787;SDS011;26497;52.494;7.546;2023-04-03T02:01:29;3.88;;;2.78;;
40787;SDS011;26497;52.494;7.546;2023-04-03T02:03:56;5.40;;;1.90;;
40787;SDS011;26497;52.494;7.546;2023-04-03T02:06:24;14.27;;;2.67;;
40787;SDS011;26497;52.494;7.546;2023-04-03T02:08:51;10.25;;;2.50;;
40787;SDS011;26497;52.494;7.546;2023-04-03T02:11:18;19.58;;;3.15;;
40787;SDS011;26497;52.494;7.546;2023-04-03T02:13:45;5.65;;;2.72;;
40787;SDS011;26497;52.494;7.546;2023-04-03T02:16:12;4.72;;;2.78;;
40787;SDS011;26497;52.494;7.546;2023-04-03T02:18:39;8.10;;;3.05;;
40787;SDS011;26497;52.494;7.546;2023-04-03T02:21:06;14.35;;;3.22;;
40787;SDS011;26497;52.494;7.546;2023-04-03T02:23:34;5.00;;;2.50;;
40787;SDS011;26497;52.494;7.546;2023-04-03T02:26:02;6.88;;;2.83;;
40787;SDS011;26497;52.494;7.546;2023-04-03T02:28:32;3.78;;;2.35;;
40787;SDS011;26497;52.494;7.546;2023-04-03T02:30:59;4.15;;;2.50;;
40787;SDS011;26497;52.494;7.546;2023-04-03T02:33:26;8.95;;;2.75;;
40787;SDS011;26497;52.494;7.546;2023-04-03T02:35:53;8.73;;;2.95;;
40787;SDS011;26497;52.494;7.546;2023-04-03T02:38:20;7.03;;;2.92;;
40787;SDS011;26497;52.494;7.546;2023-04-03T02:40:49;11.07;;;2.40;;
40787;SDS011;26497;52.494;7.546;2023-04-03T02:43:17;12.38;;;3.55;;
40787;SDS011;26497;52.494;7.546;2023-04-03T02:45:44;6.32;;;2.67;;
40787;SDS011;26497;52.494;7.546;2023-04-03T02:48:11;11.90;;;2.53;;
40787;SDS011;26497;52.494;7.546;2023-04-03T02:50:39;5.40;;;3.47;;
40787;SDS011;26497;52.494;7.546;2023-04-03T02:53:07;3.90;;;2.60;;
40787;SDS011;26497;52.494;7.546;2023-04-03T02:55:34;10.30;;;3.38;;
40787;SDS011;26497;52.494;7.546;2023-04-03T02:58:02;7.10;;;2.85;;
40787;SDS011;26497;52.494;7.546;2023-04-03T03:00:30;2.97;;;2.47;;
40787;SDS011;26497;52.494;7.546;2023-04-03T03:02:57;9.20;;;3.83;;
40787;SDS011;26497;52.494;7.546;2023-04-03T03:05:24;3.97;;;2.38;;
40787;SDS011;26497;52.494;7.546;2023-04-03T03:07:51;7.90;;;3.22;;
40787;SDS011;26497;52.494;7.546;2023-04-03T03:10:27;11.00;;;3.50;;
40787;SDS011;26497;52.494;7.546;2023-04-03T03:12:54;8.98;;;3.05;;
40787;SDS011;26497;52.494;7.546;2023-04-03T03:15:23;20.60;;;3.90;;
40787;SDS011;26497;52.494;7.546;2023-04-03T03:17:50;4.88;;;2.58;;
40787;SDS011;26497;52.494;7.546;2023-04-03T03:20:17;8.77;;;2.97;;
40787;SDS011;26497;52.494;7.546;2023-04-03T03:22:44;15.00;;;3.85;;
40787;SDS011;26497;52.494;7.546;2023-04-03T03:25:11;8.13;;;4.35;;
40787;SDS011;26497;52.494;7.546;2023-04-03T03:27:38;6.07;;;5.47;;
40787;SDS011;26497;52.494;7.546;2023-04-03T03:30:06;7.50;;;6.78;;
40787;SDS011;26497;52.494;7.546;2023-04-03T03:32:35;11.13;;;5.10;;
40787;SDS011;26497;52.494;7.546;2023-04-03T03:35:02;23.88;;;6.18;;
40787;SDS011;26497;52.494;7.546;2023-04-03T03:37:30;9.18;;;5.45;;
40787;SDS011;26497;52.494;7.546;2023-04-03T03:39:57;15.88;;;7.22;;
40787;SDS011;26497;52.494;7.546;2023-04-03T03:42:24;20.30;;;7.05;;
40787;SDS011;26497;52.494;7.546;2023-04-03T03:44:51;10.48;;;5.45;;
40787;SDS011;26497;52.494;7.546;2023-04-03T03:47:18;10.18;;;4.25;;
40787;SDS011;26497;52.494;7.546;2023-04-03T03:49:46;10.00;;;2.65;;
40787;SDS011;26497;52.494;7.546;2023-04-03T03:52:13;17.25;;;4.03;;
40787;SDS011;26497;52.494;7.546;2023-04-03T03:54:41;5.22;;;2.70;;
40787;SDS011;26497;52.494;7.546;2023-04-03T03:57:08;12.43;;;4.07;;
40787;SDS011;26497;52.494;7.546;2023-04-03T03:59:35;9.65;;;2.70;;
40787;SDS011;26497;52.494;7.546;2023-04-03T04:02:02;5.72;;;3.63;;
40787;SDS011;26497;52.494;7.546;2023-04-03T04:04:29;8.88;;;2.83;;
40787;SDS011;26497;52.494;7.546;2023-04-03T04:06:58;10.23;;;3.13;;
40787;SDS011;26497;52.494;7.546;2023-04-03T04:09:25;15.98;;;3.63;;
40787;SDS011;26497;52.494;7.546;2023-04-03T04:11:52;24.80;;;13.02;;
40787;SDS011;26497;52.494;7.546;2023-04-03T04:14:20;18.70;;;5.55;;
40787;SDS011;26497;52.494;7.546;2023-04-03T04:16:47;11.20;;;3.00;;
40787;SDS011;26497;52.494;7.546;2023-04-03T04:19:14;14.95;;;3.60;;
40787;SDS011;26497;52.494;7.546;2023-04-03T04:21:41;9.70;;;4.25;;
40787;SDS011;26497;52.494;7.546;2023-04-03T04:24:09;10.40;;;3.35;;
40787;SDS011;26497;52.494;7.546;2023-04-03T04:26:36;11.20;;;3.20;;
40787;SDS011;26497;52.494;7.546;2023-04-03T04:29:03;8.38;;;2.90;;
40787;SDS011;26497;52.494;7.546;2023-04-03T04:31:30;14.93;;;3.83;;
40787;SDS011;26497;52.494;7.546;2023-04-03T04:33:57;6.28;;;3.58;;
40787;SDS011;26497;52.494;7.546;2023-04-03T04:36:25;9.05;;;3.30;;
40787;SDS011;26497;52.494;7.546;2023-04-03T04:38:52;11.05;;;4.05;;
40787;SDS011;26497;52.494;7.546;2023-04-03T04:41:20;12.00;;;3.47;;
40787;SDS011;26497;52.494;7.546;2023-04-03T04:43:48;4.97;;;3.20;;
40787;SDS011;26497;52.494;7.546;2023-04-03T04:46:15;9.43;;;3.72;;
40787;SDS011;26497;52.494;7.546;2023-04-03T04:48:42;15.25;;;4.13;;
40787;SDS011;26497;52.494;7.546;2023-04-03T04:51:09;9.68;;;4.05;;
40787;SDS011;26497;52.494;7.546;2023-04-03T04:53:37;11.93;;;3.80;;
40787;SDS011;26497;52.494;7.546;2023-04-03T04:56:04;13.57;;;3.85;;
40787;SDS011;26497;52.494;7.546;2023-04-03T04:58:33;5.65;;;3.22;;
40787;SDS011;26497;52.494;7.546;2023-04-03T05:01:12;10.55;;;3.65;;
40787;SDS011;26497;52.494;7.546;2023-04-03T05:03:39;12.75;;;3.28;;
40787;SDS011;26497;52.494;7.546;2023-04-03T05:06:06;17.52;;;3.25;;
40787;SDS011;26497;52.494;7.546;2023-04-03T05:08:33;8.30;;;3.33;;
40787;SDS011;26497;52.494;7.546;2023-04-03T05:11:00;6.22;;;3.13;;
40787;SDS011;26497;52.494;7.546;2023-04-03T05:13:27;10.23;;;3.78;;
40787;SDS011;26497;52.494;7.546;2023-04-03T05:15:55;10.82;;;3.08;;
40787;SDS011;26497;52.494;7.546;2023-04-03T05:18:22;5.60;;;2.95;;
40787;SDS011;26497;52.494;7.546;2023-04-03T05:20:49;9.90;;;2.83;;
40787;SDS011;26497;52.494;7.546;2023-04-03T05:23:16;10.20;;;3.08;;
40787;SDS011;26497;52.494;7.546;2023-04-03T05:25:44;20.95;;;3.22;;
40787;SDS011;26497;52.494;7.546;2023-04-03T05:28:12;13.32;;;3.10;;
40787;SDS011;26497;52.494;7.546;2023-04-03T05:30:39;5.13;;;3.22;;
40787;SDS011;26497;52.494;7.546;2023-04-03T05:33:10;12.82;;;3.63;;
40787;SDS011;26497;52.494;7.546;2023-04-03T05:35:39;4.63;;;3.83;;
40787;SDS011;26497;52.494;7.546;2023-04-03T05:38:06;20.60;;;3.67;;
40787;SDS011;26497;52.494;7.546;2023-04-03T05:40:33;4.75;;;2.80;;
40787;SDS011;26497;52.494;7.546;2023-04-03T05:43:00;4.55;;;3.60;;
40787;SDS011;26497;52.494;7.546;2023-04-03T05:45:27;13.93;;;3.60;;
40787;SDS011;26497;52.494;7.546;2023-04-03T05:47:54;11.15;;;4.57;;
40787;SDS011;26497;52.494;7.546;2023-04-03T05:50:23;10.55;;;3.38;;
40787;SDS011;26497;52.494;7.546;2023-04-03T05:52:50;9.38;;;3.58;;
40787;SDS011;26497;52.494;7.546;2023-04-03T05:55:21;12.05;;;3.42;;
40787;SDS011;26497;52.494;7.546;2023-04-03T05:57:48;14.52;;;3.15;;
40787;SDS011;26497;52.494;7.546;2023-04-03T06:00:15;3.42;;;2.83;;
40787;SDS011;26497;52.494;7.546;2023-04-03T06:02:43;12.57;;;3.10;;
40787;SDS011;26497;52.494;7.546;2023-04-03T06:05:10;10.77;;;4.25;;
40787;SDS011;26497;52.494;7.546;2023-04-03T06:07:39;11.07;;;2.95;;
40787;SDS011;26497;52.494;7.546;2023-04-03T06:10:06;7.97;;;2.60;;
40787;SDS011;26497;52.494;7.546;2023-04-03T06:12:34;7.50;;;2.33;;
40787;SDS011;26497;52.494;7.546;2023-04-03T06:15:02;5.78;;;2.85;;
40787;SDS011;26497;52.494;7.546;2023-04-03T06:17:29;6.35;;;2.00;;
40787;SDS011;26497;52.494;7.546;2023-04-03T06:19:56;7.30;;;2.85;;
40787;SDS011;26497;52.494;7.546;2023-04-03T06:22:23;7.97;;;2.08;;
40787;SDS011;26497;52.494;7.546;2023-04-03T06:24:52;16.98;;;1.88;;
40787;SDS011;26497;52.494;7.546;2023-04-03T06:27:19;3.60;;;1.30;;
40787;SDS011;26497;52.494;7.546;2023-04-03T06:29:46;5.45;;;0.85;;
40787;SDS011;26497;52.494;7.546;2023-04-03T06:32:14;5.15;;;1.02;;
40787;SDS011;26497;52.494;7.546;2023-04-03T06:34:41;3.08;;;1.10;;
40787;SDS011;26497;52.494;7.546;2023-04-03T06:37:10;2.60;;;0.82;;
40787;SDS011;26497;52.494;7.546;2023-04-03T06:39:40;4.20;;;0.90;;
40787;SDS011;26497;52.494;7.546;2023-04-03T06:42:09;14.18;;;1.23;;
40787;SDS011;26497;52.494;7.546;2023-04-03T06:44:36;4.38;;;0.73;;
40787;SDS011;26497;52.494;7.546;2023-04-03T06:47:03;4.43;;;1.05;;
40787;SDS011;26497;52.494;7.546;2023-04-03T06:49:30;4.10;;;0.70;;
40787;SDS011;26497;52.494;7.546;2023-04-03T06:51:57;2.40;;;0.60;;
40787;SDS011;26497;52.494;7.546;2023-04-03T06:54:25;2.70;;;0.45;;
40787;SDS011;26497;52.494;7.546;2023-04-03T06:56:52;3.20;;;0.43;;
40787;SDS011;26497;52.494;7.546;2023-04-03T06:59:20;7.25;;;1.40;;
40787;SDS011;26497;52.494;7.546;2023-04-03T07:01:47;4.30;;;0.75;;
40787;SDS011;26497;52.494;7.546;2023-04-03T07:04:14;4.90;;;0.73;;
40787;SDS011;26497;52.494;7.546;2023-04-03T07:06:42;5.18;;;0.80;;
40787;SDS011;26497;52.494;7.546;2023-04-03T07:09:09;6.15;;;1.13;;
40787;SDS011;26497;52.494;7.546;2023-04-03T07:11:36;4.32;;;0.93;;
40787;SDS011;26497;52.494;7.546;2023-04-03T07:14:03;1.98;;;0.50;;
40787;SDS011;26497;52.494;7.546;2023-04-03T07:16:32;2.42;;;0.98;;
40787;SDS011;26497;52.494;7.546;2023-04-03T07:18:59;4.13;;;1.00;;
40787;SDS011;26497;52.494;7.546;2023-04-03T07:21:26;2.55;;;0.75;;
40787;SDS011;26497;52.494;7.546;2023-04-03T07:23:54;3.53;;;0.70;;
40787;SDS011;26497;52.494;7.546;2023-04-03T07:26:21;4.60;;;0.70;;
40787;SDS011;26497;52.494;7.546;2023-04-03T07:28:49;3.88;;;0.70;;
40787;SDS011;26497;52.494;7.546;2023-04-03T07:31:16;4.00;;;0.68;;
40787;SDS011;26497;52.494;7.546;2023-04-03T07:33:45;2.90;;;0.52;;
40787;SDS011;26497;52.494;7.546;2023-04-03T07:36:14;5.13;;;0.45;;
40787;SDS011;26497;52.494;7.546;2023-04-03T07:38:43;5.40;;;0.90;;
40787;SDS011;26497;52.494;7.546;2023-04-03T07:41:11;2.92;;;0.57;;
40787;SDS011;26497;52.494;7.546;2023-04-03T07:43:40;8.23;;;1.10;;
40787;SDS011;26497;52.494;7.546;2023-04-03T07:46:07;8.50;;;1.25;;
40787;SDS011;26497;52.494;7.546;2023-04-03T07:48:35;2.38;;;0.82;;
40787;SDS011;26497;52.494;7.546;2023-04-03T07:51:04;2.22;;;0.60;;
40787;SDS011;26497;52.494;7.546;2023-04-03T07:53:31;5.43;;;1.17;;
40787;SDS011;26497;52.494;7.546;2023-04-03T07:55:59;2.10;;;0.95;;
40787;SDS011;26497;52.494;7.546;2023-04-03T07:58:27;4.68;;;0.90;;
40787;SDS011;26497;52.494;7.546;2023-04-03T08:00:55;2.50;;;1.10;;
40787;SDS011;26497;52.494;7.546;2023-04-03T08:03:22;2.38;;;0.50;;
40787;SDS011;26497;52.494;7.546;2023-04-03T08:05:49;6.32;;;0.68;;
40787;SDS011;26497;52.494;7.546;2023-04-03T08:08:20;2.35;;;0.80;;
40787;SDS011;26497;52.494;7.546;2023-04-03T08:10:49;4.53;;;0.73;;
40787;SDS011;26497;52.494;7.546;2023-04-03T08:13:17;2.72;;;0.68;;
40787;SDS011;26497;52.494;7.546;2023-04-03T08:15:45;5.82;;;0.88;;
40787;SDS011;26497;52.494;7.546;2023-04-03T08:18:12;2.67;;;0.38;;
40787;SDS011;26497;52.494;7.546;2023-04-03T08:20:40;5.50;;;0.57;;
40787;SDS011;26497;52.494;7.546;2023-04-03T08:23:07;5.47;;;0.90;;
40787;SDS011;26497;52.494;7.546;2023-04-03T08:25:38;4.07;;;0.77;;
40787;SDS011;26497;52.494;7.546;2023-04-03T08:28:05;2.70;;;0.70;;
40787;SDS011;26497;52.494;7.546;2023-04-03T08:30:34;2.25;;;0.55;;
40787;SDS011;26497;52.494;7.546;2023-04-03T08:33:01;3.30;;;0.50;;
40787;SDS011;26497;52.494;7.546;2023-04-03T08:35:29;6.57;;;0.68;;
40787;SDS011;26497;52.494;7.546;2023-04-03T08:37:56;8.23;;;1.48;;
40787;SDS011;26497;52.494;7.546;2023-04-03T08:40:23;3.50;;;0.68;;
40787;SDS011;26497;52.494;7.546;2023-04-03T08:42:57;1.65;;;0.40;;
40787;SDS011;26497;52.494;7.546;2023-04-03T08:45:44;1.08;;;0.60;;
40787;SDS011;26497;52.494;7.546;2023-04-03T08:48:15;4.03;;;0.75;;
40787;SDS011;26497;52.494;7.546;2023-04-03T08:50:48;2.10;;;0.68;;
40787;SDS011;26497;52.494;7.546;2023-04-03T08:53:21;1.05;;;0.50;;
40787;SDS011;26497;52.494;7.546;2023-04-03T08:55:53;2.75;;;0.50;;
40787;SDS011;26497;52.494;7.546;2023-04-03T08:58:24;3.10;;;0.60;;
40787;SDS011;26497;52.494;7.546;2023-04-03T09:05:57;2.70;;;0.85;;
40787;SDS011;26497;52.494;7.546;2023-04-03T09:08:30;1.33;;;0.60;;
40787;SDS011;26497;52.494;7.546;2023-04-03T09:11:05;3.92;;;0.50;;
40787;SDS011;26497;52.494;7.546;2023-04-03T09:13:39;3.58;;;0.85;;
40787;SDS011;26497;52.494;7.546;2023-04-03T09:16:19;0.60;;;0.40;;
40787;SDS011;26497;52.494;7.546;2023-04-03T09:18:56;2.13;;;0.77;;
40787;SDS011;26497;52.494;7.546;2023-04-03T09:21:34;6.28;;;0.40;;
40787;SDS011;26497;52.494;7.546;2023-04-03T09:24:07;0.65;;;0.50;;
40787;SDS011;26497;52.494;7.546;2023-04-03T09:26:39;0.85;;;0.30;;
40787;SDS011;26497;52.494;7.546;2023-04-03T09:29:14;2.25;;;0.40;;
40787;SDS011;26497;52.494;7.546;2023-04-03T09:31:46;5.53;;;0.50;;
40787;SDS011;26497;52.494;7.546;2023-04-03T09:34:17;5.03;;;0.73;;
40787;SDS011;26497;52.494;7.546;2023-04-03T09:36:49;3.53;;;0.70;;
40787;SDS011;26497;52.494;7.546;2023-04-03T09:39:18;5.47;;;1.15;;
40787;SDS011;26497;52.494;7.546;2023-04-03T09:41:55;4.22;;;0.98;;
40787;SDS011;26497;52.494;7.546;2023-04-03T09:44:28;1.00;;;0.40;;
40787;SDS011;26497;52.494;7.546;2023-04-03T09:46:58;1.88;;;0.60;;
40787;SDS011;26497;52.494;7.546;2023-04-03T09:49:26;1.55;;;0.70;;
40787;SDS011;26497;52.494;7.546;2023-04-03T09:51:53;3.58;;;1.13;;
40787;SDS011;26497;52.494;7.546;2023-04-03T09:54:24;1.88;;;0.77;;
40787;SDS011;26497;52.494;7.546;2023-04-03T09:57:07;1.27;;;0.63;;
40787;SDS011;26497;52.494;7.546;2023-04-03T09:59:44;3.58;;;0.43;;
40787;SDS011;26497;52.494;7.546;2023-04-03T10:02:21;1.17;;;0.60;;
40787;SDS011;26497;52.494;7.546;2023-04-03T10:05:00;1.15;;;0.40;;
40787;SDS011;26497;52.494;7.546;2023-04-03T10:07:31;1.63;;;0.50;;
40787;SDS011;26497;52.494;7.546;2023-04-03T10:10:01;2.92;;;0.50;;
40787;SDS011;26497;52.494;7.546;2023-04-03T10:12:42;5.00;;;0.85;;
40787;SDS011;26497;52.494;7.546;2023-04-03T10:15:13;2.17;;;0.45;;
40787;SDS011;26497;52.494;7.546;2023-04-03T10:17:48;3.58;;;0.70;;
40787;SDS011;26497;52.494;7.546;2023-04-03T10:20:29;1.40;;;0.43;;
40787;SDS011;26497;52.494;7.546;2023-04-03T10:23:13;5.80;;;1.25;;
40787;SDS011;26497;52.494;7.546;2023-04-03T10:25:47;4.82;;;0.77;;
40787;SDS011;26497;52.494;7.546;2023-04-03T10:28:27;0.95;;;0.50;;
40787;SDS011;26497;52.494;7.546;2023-04-03T10:31:04;2.97;;;0.73;;
40787;SDS011;26497;52.494;7.546;2023-04-03T10:33:45;0.55;;;0.40;;
40787;SDS011;26497;52.494;7.546;2023-04-03T10:36:25;2.28;;;0.77;;
40787;SDS011;26497;52.494;7.546;2023-04-03T10:39:06;1.30;;;0.52;;
40787;SDS011;26497;52.494;7.546;2023-04-03T10:42:02;1.50;;;0.50;;
40787;SDS011;26497;52.494;7.546;2023-04-03T10:44:36;2.67;;;0.47;;
40787;SDS011;26497;52.494;7.546;2023-04-03T10:47:20;3.45;;;0.65;;
40787;SDS011;26497;52.494;7.546;2023-04-03T10:49:52;1.67;;;0.40;;
40787;SDS011;26497;52.494;7.546;2023-04-03T10:52:29;3.13;;;0.80;;
40787;SDS011;26497;52.494;7.546;2023-04-03T10:55:05;3.05;;;0.55;;
40787;SDS011;26497;52.494;7.546;2023-04-03T10:57:57;3.13;;;0.65;;
40787;SDS011;26497;52.494;7.546;2023-04-03T11:00:27;3.05;;;0.65;;
40787;SDS011;26497;52.494;7.546;2023-04-03T11:03:05;2.17;;;0.60;;
40787;SDS011;26497;52.494;7.546;2023-04-03T11:05:39;5.45;;;0.60;;
40787;SDS011;26497;52.494;7.546;2023-04-03T11:08:11;2.95;;;0.60;;
40787;SDS011;26497;52.494;7.546;2023-04-03T11:10:50;2.78;;;0.80;;
40787;SDS011;26497;52.494;7.546;2023-04-03T11:13:21;2.03;;;0.52;;
40787;SDS011;26497;52.494;7.546;2023-04-03T11:15:56;4.22;;;0.82;;
40787;SDS011;26497;52.494;7.546;2023-04-03T11:18:27;2.47;;;0.90;;
40787;SDS011;26497;52.494;7.546;2023-04-03T11:21:02;3.75;;;0.68;;
40787;SDS011;26497;52.494;7.546;2023-04-03T11:23:36;2.08;;;0.50;;
40787;SDS011;26497;52.494;7.546;2023-04-03T11:26:07;3.40;;;0.68;;
40787;SDS011;26497;52.494;7.546;2023-04-03T11:28:37;1.88;;;0.63;;
40787;SDS011;26497;52.494;7.546;2023-04-03T11:31:09;4.10;;;0.98;;
40787;SDS011;26497;52.494;7.546;2023-04-03T11:34:08;3.97;;;1.30;;
40787;SDS011;26497;52.494;7.546;2023-04-03T11:36:50;1.02;;;0.60;;
40787;SDS011;26497;52.494;7.546;2023-04-03T11:39:22;2.40;;;0.70;;
40787;SDS011;26497;52.494;7.546;2023-04-03T11:41:52;3.70;;;0.80;;
40787;SDS011;26497;52.494;7.546;2023-04-03T11:44:29;0.60;;;0.50;;
40787;SDS011;26497;52.494;7.546;2023-04-03T11:47:01;3.60;;;0.88;;
40787;SDS011;26497;52.494;7.546;2023-04-03T11:58:29;3.25;;;0.60;;
40787;SDS011;26497;52.494;7.546;2023-04-03T12:01:02;6.78;;;0.50;;
40787;SDS011;26497;52.494;7.546;2023-04-03T12:06:50;3.70;;;0.88;;
40787;SDS011;26497;52.494;7.546;2023-04-03T12:12:42;2.30;;;0.55;;
40787;SDS011;26497;52.494;7.546;2023-04-03T12:15:26;4.07;;;0.88;;
40787;SDS011;26497;52.494;7.546;2023-04-03T12:24:33;3.25;;;0.60;;
40787;SDS011;26497;52.494;7.546;2023-04-03T12:30:15;10.30;;;0.80;;
40787;SDS011;26497;52.494;7.546;2023-04-03T12:32:51;5.40;;;0.80;;
40787;SDS011;26497;52.494;7.546;2023-04-03T12:35:47;3.97;;;1.08;;
40787;SDS011;26497;52.494;7.546;2023-04-03T12:41:45;3.05;;;0.73;;
40787;SDS011;26497;52.494;7.546;2023-04-03T12:44:26;1.40;;;0.80;;
40787;SDS011;26497;52.494;7.546;2023-04-03T12:47:21;1.15;;;0.50;;
40787;SDS011;26497;52.494;7.546;2023-04-03T12:49:53;1.95;;;1.02;;
40787;SDS011;26497;52.494;7.546;2023-04-03T12:52:26;4.43;;;0.88;;
40787;SDS011;26497;52.494;7.546;2023-04-03T12:55:06;3.92;;;0.40;;
40787;SDS011;26497;52.494;7.546;2023-04-03T12:57:47;4.28;;;0.60;;
40787;SDS011;26497;52.494;7.546;2023-04-03T13:00:19;0.68;;;0.40;;
40787;SDS011;26497;52.494;7.546;2023-04-03T13:02:57;3.40;;;0.70;;
40787;SDS011;26497;52.494;7.546;2023-04-03T13:05:24;1.35;;;0.52;;
40787;SDS011;26497;52.494;7.546;2023-04-03T13:07:52;3.15;;;0.60;;
40787;SDS011;26497;52.494;7.546;2023-04-03T13:10:26;2.95;;;0.85;;
40787;SDS011;26497;52.494;7.546;2023-04-03T13:12:54;4.57;;;0.70;;
40787;SDS011;26497;52.494;7.546;2023-04-03T13:15:24;1.90;;;0.50;;
40787;SDS011;26497;52.494;7.546;2023-04-03T13:17:54;1.27;;;0.50;;
40787;SDS011;26497;52.494;7.546;2023-04-03T13:20:23;1.20;;;0.32;;
40787;SDS011;26497;52.494;7.546;2023-04-03T13:22:54;3.28;;;0.55;;
40787;SDS011;26497;52.494;7.546;2023-04-03T13:25:27;4.55;;;0.80;;
40787;SDS011;26497;52.494;7.546;2023-04-03T13:27:57;2.40;;;0.40;;
40787;SDS011;26497;52.494;7.546;2023-04-03T13:30:27;2.08;;;0.65;;
40787;SDS011;26497;52.494;7.546;2023-04-03T13:32:58;1.38;;;0.40;;
40787;SDS011;26497;52.494;7.546;2023-04-03T13:35:31;2.50;;;0.77;;
40787;SDS011;26497;52.494;7.546;2023-04-03T13:38:03;4.38;;;0.40;;
40787;SDS011;26497;52.494;7.546;2023-04-03T13:40:49;3.15;;;0.40;;
40787;SDS011;26497;52.494;7.546;2023-04-03T13:43:18;1.98;;;0.70;;
40787;SDS011;26497;52.494;7.546;2023-04-03T13:45:55;3.97;;;1.13;;
40787;SDS011;26497;52.494;7.546;2023-04-03T13:48:25;2.13;;;0.57;;
40787;SDS011;26497;52.494;7.546;2023-04-03T13:51:01;2.88;;;0.55;;
40787;SDS011;26497;52.494;7.546;2023-04-03T13:53:31;5.53;;;0.60;;
40787;SDS011;26497;52.494;7.546;2023-04-03T13:56:09;3.15;;;0.75;;
40787;SDS011;26497;52.494;7.546;2023-04-03T13:58:52;1.10;;;0.60;;
40787;SDS011;26497;52.494;7.546;2023-04-03T14:01:23;1.75;;;0.50;;
40787;SDS011;26497;52.494;7.546;2023-04-03T14:03:53;2.30;;;0.82;;
40787;SDS011;26497;52.494;7.546;2023-04-03T14:06:22;1.02;;;0.60;;
40787;SDS011;26497;52.494;7.546;2023-04-03T14:08:50;4.97;;;0.73;;
40787;SDS011;26497;52.494;7.546;2023-04-03T14:11:20;3.92;;;0.73;;
40787;SDS011;26497;52.494;7.546;2023-04-03T14:13:50;2.08;;;0.80;;
40787;SDS011;26497;52.494;7.546;2023-04-03T14:16:18;10.68;;;0.95;;
40787;SDS011;26497;52.494;7.546;2023-04-03T14:18:48;1.83;;;0.60;;
40787;SDS011;26497;52.494;7.546;2023-04-03T14:21:16;3.60;;;0.80;;
40787;SDS011;26497;52.494;7.546;2023-04-03T14:23:45;1.20;;;0.63;;
40787;SDS011;26497;52.494;7.546;2023-04-03T14:26:12;1.98;;;0.60;;
40787;SDS011;26497;52.494;7.546;2023-04-03T14:28:44;3.33;;;0.50;;
40787;SDS011;26497;52.494;7.546;2023-04-03T14:31:12;1.83;;;0.60;;
40787;SDS011;26497;52.494;7.546;2023-04-03T14:33:41;2.20;;;0.70;;
40787;SDS011;26497;52.494;7.546;2023-04-03T14:36:12;3.90;;;1.45;;
40787;SDS011;26497;52.494;7.546;2023-04-03T14:38:41;2.20;;;0.80;;
40787;SDS011;26497;52.494;7.546;2023-04-03T14:41:10;2.20;;;0.60;;
40787;SDS011;26497;52.494;7.546;2023-04-03T14:43:40;4.45;;;0.60;;
40787;SDS011;26497;52.494;7.546;2023-04-03T14:46:12;1.17;;;0.60;;
40787;SDS011;26497;52.494;7.546;2023-04-03T14:48:42;3.97;;;0.75;;
40787;SDS011;26497;52.494;7.546;2023-04-03T14:51:10;4.22;;;0.98;;
40787;SDS011;26497;52.494;7.546;2023-04-03T14:53:40;2.88;;;0.55;;
40787;SDS011;26497;52.494;7.546;2023-04-03T14:56:12;2.90;;;0.63;;
40787;SDS011;26497;52.494;7.546;2023-04-03T14:58:41;1.80;;;0.70;;
40787;SDS011;26497;52.494;7.546;2023-04-03T15:01:11;4.38;;;0.70;;
40787;SDS011;26497;52.494;7.546;2023-04-03T15:03:39;2.78;;;0.70;;
40787;SDS011;26497;52.494;7.546;2023-04-03T15:06:06;1.77;;;0.73;;
40787;SDS011;26497;52.494;7.546;2023-04-03T15:08:36;2.92;;;0.70;;
40787;SDS011;26497;52.494;7.546;2023-04-03T15:11:03;2.45;;;0.57;;
40787;SDS011;26497;52.494;7.546;2023-04-03T15:13:32;3.30;;;0.85;;
40787;SDS011;26497;52.494;7.546;2023-04-03T15:15:59;3.58;;;0.77;;
40787;SDS011;26497;52.494;7.546;2023-04-03T15:18:27;1.52;;;0.40;;
40787;SDS011;26497;52.494;7.546;2023-04-03T15:21:02;1.42;;;0.82;;
40787;SDS011;26497;52.494;7.546;2023-04-03T15:23:30;1.67;;;0.63;;
40787;SDS011;26497;52.494;7.546;2023-04-03T15:25:57;2.67;;;0.82;;
40787;SDS011;26497;52.494;7.546;2023-04-03T15:28:25;1.30;;;0.90;;
40787;SDS011;26497;52.494;7.546;2023-04-03T15:30:56;3.83;;;0.80;;
40787;SDS011;26497;52.494;7.546;2023-04-03T15:33:24;4.32;;;0.60;;
40787;SDS011;26497;52.494;7.546;2023-04-03T15:35:53;3.95;;;1.08;;
40787;SDS011;26497;52.494;7.546;2023-04-03T15:38:20;3.05;;;0.95;;
40787;SDS011;26497;52.494;7.546;2023-04-03T15:40:47;3.17;;;0.50;;